Time;durP1;ratioP1;P1;durP2;ratioP2;P2;SDS_P1;SDS_P2;PMS_P1;PMS_P2;Temp;Humidity;BMP_temperature;BMP_pressure;BME280_temperature;BME280_humidity;BME280_pressure;Samples;Min_cycle;Max_cycle;Signal;HPM_P1;HPM_P2
2023/10/05 00:01:13;;;;;;;5.38;2.40;;;23.30;59.10;;;;;;6058340;23;89546;-82
2023/10/05 00:03:43;;;;;;;6.70;2.20;;;23.30;59.20;;;;;;6036644;23;86414;-83
2023/10/05 00:06:23;;;;;;;4.30;2.40;;;23.30;59.20;;;;;;6033887;23;87312;-84
2023/10/05 00:08:52;;;;;;;7.57;2.63;;;23.30;59.20;;;;;;6036308;23;87237;-83
2023/10/05 00:11:23;;;;;;;4.50;2.55;;;23.30;59.10;;;;;;6033221;23;90521;-83
2023/10/05 00:13:53;;;;;;;4.05;2.47;;;23.30;59.10;;;;;;6035253;23;89249;-82
2023/10/05 00:16:22;;;;;;;4.65;2.80;;;23.30;59.10;;;;;;6033626;23;87218;-83
2023/10/05 00:18:52;;;;;;;3.97;2.20;;;23.20;59.10;;;;;;6035695;23;86928;-83
2023/10/05 00:21:20;;;;;;;4.22;2.13;;;23.20;59.20;;;;;;6032533;23;88713;-82
2023/10/05 00:23:52;;;;;;;2.80;1.92;;;23.20;59.20;;;;;;6034887;23;89533;-84
2023/10/05 00:26:20;;;;;;;2.67;1.98;;;23.20;59.10;;;;;;6036610;23;86860;-83
2023/10/05 00:29:00;;;;;;;3.13;2.20;;;23.20;59.20;;;;;;6057517;23;88615;-83
2023/10/05 00:31:26;;;;;;;2.97;1.92;;;23.20;59.20;;;;;;6034204;23;89360;-84
2023/10/05 00:33:56;;;;;;;4.72;2.45;;;23.20;59.30;;;;;;6035302;23;87269;-82
2023/10/05 00:36:27;;;;;;;4.55;2.45;;;23.20;59.40;;;;;;6033915;23;88180;-83
2023/10/05 00:38:52;;;;;;;2.88;2.00;;;23.20;59.30;;;;;;6033619;23;88838;-83
2023/10/05 00:41:18;;;;;;;4.10;2.45;;;23.20;59.40;;;;;;6034977;23;88607;-84
2023/10/05 00:43:46;;;;;;;4.43;2.45;;;23.20;59.30;;;;;;6035583;23;94326;-83
2023/10/05 00:46:13;;;;;;;3.83;2.47;;;23.10;59.30;;;;;;6035084;23;87174;-83
2023/10/05 00:48:54;;;;;;;4.00;2.42;;;23.20;59.20;;;;;;6035495;23;87012;-84
2023/10/05 00:51:26;;;;;;;3.03;1.92;;;23.10;59.20;;;;;;6035248;23;88111;-83
2023/10/05 00:53:53;;;;;;;3.45;2.55;;;23.10;59.40;;;;;;6034393;23;89333;-84
2023/10/05 00:56:22;;;;;;;4.15;2.30;;;23.10;59.40;;;;;;6036163;23;87238;-83
2023/10/05 00:58:52;;;;;;;4.05;2.50;;;23.10;59.30;;;;;;6035624;23;87506;-83
2023/10/05 01:01:22;;;;;;;4.18;2.40;;;23.10;59.20;;;;;;6034804;23;89254;-84
2023/10/05 01:06:49;;;;;;;3.58;2.10;;;23.10;59.30;;;;;;6037026;23;87412;-84
2023/10/05 01:14:50;;;;;;;2.85;2.13;;;23.00;59.30;;;;;;6036526;23;87426;-84
2023/10/05 01:17:20;;;;;;;3.65;2.45;;;23.10;59.30;;;;;;6033120;23;87305;-83
2023/10/05 01:19:48;;;;;;;4.25;2.55;;;23.00;59.30;;;;;;6035648;23;87448;-83
2023/10/05 01:22:16;;;;;;;3.27;1.97;;;23.00;59.40;;;;;;6036613;23;88103;-84
2023/10/05 01:24:45;;;;;;;3.05;1.83;;;23.00;59.30;;;;;;6035307;23;88065;-84
2023/10/05 01:27:11;;;;;;;4.22;2.08;;;23.00;59.30;;;;;;6035176;23;88227;-84
2023/10/05 01:29:36;;;;;;;3.95;2.35;;;23.00;59.30;;;;;;6036261;23;87208;-83
2023/10/05 01:32:02;;;;;;;5.18;1.92;;;23.00;59.40;;;;;;6035579;23;90061;-83
2023/10/05 01:34:28;;;;;;;3.55;1.90;;;23.00;60.00;;;;;;6034472;23;90047;-84
2023/10/05 01:36:54;;;;;;;3.58;2.25;;;23.00;59.30;;;;;;6035270;23;87261;-84
2023/10/05 01:39:24;;;;;;;3.63;1.80;;;23.00;59.40;;;;;;6057841;23;87853;-84
2023/10/05 01:41:50;;;;;;;3.30;2.28;;;22.90;59.30;;;;;;6036211;23;87411;-84
2023/10/05 01:44:16;;;;;;;4.40;1.80;;;23.00;59.40;;;;;;6058459;23;89705;-83
2023/10/05 01:46:44;;;;;;;6.20;2.97;;;23.00;59.40;;;;;;6057999;23;87639;-83
2023/10/05 01:49:10;;;;;;;5.72;2.38;;;23.00;59.50;;;;;;6035071;23;87471;-84
2023/10/05 01:51:35;;;;;;;2.85;1.80;;;22.90;59.30;;;;;;6023972;23;89459;-83
2023/10/05 01:54:15;;;;;;;5.63;2.13;;;23.00;59.40;;;;;;6033953;23;91027;-83
2023/10/05 01:56:44;;;;;;;3.08;2.13;;;22.90;59.30;;;;;;6036889;23;87144;-83
2023/10/05 01:59:12;;;;;;;3.30;2.05;;;22.90;59.40;;;;;;6057143;23;87552;-83
2023/10/05 02:01:40;;;;;;;2.85;1.90;;;22.90;59.40;;;;;;6036070;23;88919;-83
2023/10/05 02:04:07;;;;;;;3.80;2.38;;;22.90;59.40;;;;;;6036374;23;88275;-83
2023/10/05 02:06:40;;;;;;;3.47;2.20;;;22.90;59.40;;;;;;6056838;23;87251;-83
2023/10/05 02:09:08;;;;;;;3.92;2.15;;;22.90;59.40;;;;;;6034950;23;86758;-83
2023/10/05 02:11:36;;;;;;;3.50;1.93;;;22.90;59.40;;;;;;6036435;23;88113;-83
2023/10/05 02:14:04;;;;;;;3.00;2.08;;;22.90;59.20;;;;;;6034481;23;87428;-83
2023/10/05 02:16:33;;;;;;;2.45;1.80;;;22.90;59.10;;;;;;6034872;23;88457;-83
2023/10/05 02:19:04;;;;;;;3.35;1.80;;;22.90;59.20;;;;;;6035050;23;87423;-83
2023/10/05 02:21:31;;;;;;;4.43;2.42;;;22.90;59.30;;;;;;6056686;23;89395;-83
2023/10/05 02:24:02;;;;;;;3.80;2.03;;;22.90;59.30;;;;;;6033762;23;88312;-83
2023/10/05 02:26:33;;;;;;;3.38;2.03;;;22.80;59.30;;;;;;6034530;23;87283;-83
2023/10/05 02:28:59;;;;;;;4.10;2.10;;;22.80;59.40;;;;;;6033033;23;88289;-83
2023/10/05 02:31:29;;;;;;;3.88;2.20;;;22.90;59.40;;;;;;6057074;23;88075;-83
2023/10/05 02:33:58;;;;;;;4.45;2.15;;;22.80;59.40;;;;;;6036419;23;87867;-83
2023/10/05 02:36:27;;;;;;;3.35;2.08;;;22.80;59.20;;;;;;6033552;23;87250;-83
2023/10/05 02:38:53;;;;;;;3.17;2.15;;;22.80;59.30;;;;;;6025280;23;87272;-84
2023/10/05 02:41:37;;;;;;;3.60;2.25;;;22.80;59.40;;;;;;6034616;23;93197;-83
2023/10/05 02:44:26;;;;;;;3.90;2.13;;;22.80;59.40;;;;;;6035140;23;89098;-83
2023/10/05 02:46:52;;;;;;;4.18;2.50;;;22.80;59.40;;;;;;6034366;23;87459;-83
2023/10/05 02:49:18;;;;;;;3.38;2.17;;;22.80;59.40;;;;;;6033588;23;87375;-84
2023/10/05 02:51:44;;;;;;;4.43;2.08;;;22.80;59.20;;;;;;6032248;23;89056;-85
2023/10/05 02:54:12;;;;;;;2.80;2.17;;;22.80;59.40;;;;;;6031987;23;89942;-84
2023/10/05 02:56:41;;;;;;;4.32;2.15;;;22.80;59.30;;;;;;6036054;23;87560;-83
2023/10/05 02:59:09;;;;;;;3.20;1.95;;;22.80;59.40;;;;;;6035994;23;86673;-84
2023/10/05 03:01:38;;;;;;;3.17;2.00;;;22.80;59.40;;;;;;6032295;23;90075;-84
2023/10/05 03:04:10;;;;;;;3.33;1.90;;;22.80;59.20;;;;;;6031629;23;90945;-83
2023/10/05 03:06:39;;;;;;;3.28;1.92;;;22.80;59.20;;;;;;6035057;23;88064;-82
2023/10/05 03:09:08;;;;;;;3.15;2.08;;;22.80;59.40;;;;;;6032297;23;88949;-83
2023/10/05 03:11:38;;;;;;;3.10;2.38;;;22.80;59.40;;;;;;6037129;23;87671;-85
2023/10/05 03:14:05;;;;;;;2.95;2.13;;;22.80;59.50;;;;;;6039652;23;89502;-83
2023/10/05 03:16:37;;;;;;;4.03;2.25;;;22.80;59.30;;;;;;6035887;23;87300;-85
2023/10/05 03:19:03;;;;;;;3.03;1.95;;;22.80;59.40;;;;;;6035526;23;87350;-83
2023/10/05 03:21:29;;;;;;;3.22;1.98;;;22.80;59.60;;;;;;6035822;23;88934;-82
2023/10/05 03:23:54;;;;;;;3.55;1.90;;;22.80;59.40;;;;;;6034269;23;89553;-84
2023/10/05 03:26:20;;;;;;;3.92;2.28;;;22.80;59.50;;;;;;6037694;23;87342;-83
2023/10/05 03:28:49;;;;;;;3.80;2.35;;;22.80;59.50;;;;;;6036023;23;87950;-82
2023/10/05 03:31:19;;;;;;;2.13;1.88;;;22.70;59.50;;;;;;6033708;23;88821;-82
2023/10/05 03:33:46;;;;;;;3.92;2.40;;;22.80;59.60;;;;;;6037718;23;89080;-83
2023/10/05 03:36:15;;;;;;;2.92;1.80;;;22.70;59.80;;;;;;6036471;23;86858;-83
2023/10/05 03:38:42;;;;;;;5.00;2.38;;;22.80;59.80;;;;;;6033307;23;86893;-83
2023/10/05 03:41:13;;;;;;;3.47;2.33;;;22.70;59.90;;;;;;6032804;23;90203;-81
2023/10/05 03:43:39;;;;;;;4.80;2.53;;;22.70;59.60;;;;;;6036718;23;88854;-83
2023/10/05 03:46:06;;;;;;;3.72;2.33;;;22.70;59.60;;;;;;6035948;23;87246;-83
2023/10/05 03:48:38;;;;;;;3.70;2.38;;;22.70;59.60;;;;;;6035500;23;86536;-82
2023/10/05 03:51:15;;;;;;;3.30;2.20;;;22.70;59.80;;;;;;6034874;23;88232;-82
2023/10/05 03:53:43;;;;;;;2.97;2.38;;;22.70;59.60;;;;;;6036196;23;87672;-81
2023/10/05 03:56:12;;;;;;;3.35;2.28;;;22.70;59.70;;;;;;6055865;23;87896;-81
2023/10/05 03:58:39;;;;;;;6.05;2.58;;;22.70;59.80;;;;;;6057584;23;89169;-82
2023/10/05 04:01:10;;;;;;;2.50;1.92;;;22.70;59.90;;;;;;6032946;23;90137;-83
2023/10/05 04:03:36;;;;;;;4.25;2.15;;;22.70;59.90;;;;;;6034906;23;87614;-81
2023/10/05 04:06:04;;;;;;;3.38;2.30;;;22.70;59.60;;;;;;6034960;23;87915;-82
2023/10/05 04:08:31;;;;;;;3.08;2.17;;;22.70;60.00;;;;;;6036871;23;87800;-82
2023/10/05 04:10:59;;;;;;;2.97;2.17;;;22.70;59.80;;;;;;6035185;23;88035;-83
2023/10/05 04:13:26;;;;;;;4.03;2.45;;;22.70;59.80;;;;;;6035231;23;87312;-82
2023/10/05 04:15:52;;;;;;;3.72;2.63;;;22.70;59.90;;;;;;6034653;23;87442;-83
2023/10/05 04:18:20;;;;;;;4.10;2.20;;;22.70;59.80;;;;;;6036113;23;87868;-83
2023/10/05 04:20:47;;;;;;;3.25;2.33;;;22.70;59.80;;;;;;6034935;23;88923;-84
2023/10/05 04:23:18;;;;;;;4.43;2.30;;;22.70;59.90;;;;;;6035798;23;89297;-83
2023/10/05 04:25:52;;;;;;;2.72;2.00;;;22.70;59.70;;;;;;6012426;23;94377;-82
2023/10/05 04:28:22;;;;;;;3.22;2.10;;;22.70;59.70;;;;;;6005796;23;87006;-83
2023/10/05 04:30:49;;;;;;;3.40;2.03;;;22.70;59.80;;;;;;6005940;23;88387;-83
2023/10/05 04:33:18;;;;;;;3.22;2.10;;;22.70;59.70;;;;;;6005863;23;87498;-86
2023/10/05 04:35:45;;;;;;;2.75;2.13;;;22.60;59.50;;;;;;6030893;23;87307;-84
2023/10/05 04:38:12;;;;;;;3.78;2.25;;;22.70;59.60;;;;;;6008124;23;87275;-83
2023/10/05 04:40:41;;;;;;;2.65;1.83;;;22.60;59.50;;;;;;6003660;23;88911;-84
2023/10/05 04:43:11;;;;;;;2.70;2.10;;;22.70;59.60;;;;;;6007281;23;88700;-84
2023/10/05 04:45:42;;;;;;;3.70;2.17;;;22.60;59.70;;;;;;6006604;23;88202;-83
2023/10/05 04:48:12;;;;;;;3.50;2.22;;;22.70;59.60;;;;;;6005286;23;90308;-83
2023/10/05 04:50:43;;;;;;;5.03;2.60;;;22.60;59.70;;;;;;6007289;23;87582;-84
2023/10/05 04:53:09;;;;;;;2.67;2.03;;;22.60;59.60;;;;;;6004690;23;91594;-83
2023/10/05 04:55:45;;;;;;;3.30;2.05;;;22.70;59.50;;;;;;6007883;23;87613;-82
2023/10/05 04:58:30;;;;;;;2.55;2.20;;;22.70;59.70;;;;;;6003404;23;87298;-84
2023/10/05 05:06:12;;;;;;;3.08;2.05;;;22.60;59.50;;;;;;6007437;23;87269;-83
2023/10/05 05:08:41;;;;;;;3.30;2.15;;;22.60;59.60;;;;;;6008114;23;87343;-83
2023/10/05 05:11:18;;;;;;;3.63;2.30;;;22.60;59.60;;;;;;6006391;23;89581;-83
2023/10/05 05:13:48;;;;;;;3.67;2.58;;;22.60;59.70;;;;;;6005510;23;88799;-85
2023/10/05 05:16:17;;;;;;;4.07;2.30;;;22.60;59.70;;;;;;6005961;23;87321;-83
2023/10/05 05:18:46;;;;;;;2.22;1.50;;;22.60;59.70;;;;;;6003981;23;88394;-84
2023/10/05 05:21:12;;;;;;;2.58;1.75;;;22.60;59.70;;;;;;6003643;23;89494;-85
2023/10/05 05:23:43;;;;;;;2.13;1.80;;;22.60;59.80;;;;;;6008834;23;87667;-85
2023/10/05 05:26:10;;;;;;;3.00;1.88;;;22.60;59.70;;;;;;6006528;23;87213;-85
2023/10/05 05:28:37;;;;;;;2.67;2.10;;;22.60;59.60;;;;;;6020792;23;90590;-86
2023/10/05 05:31:07;;;;;;;2.80;2.10;;;22.60;59.60;;;;;;6015191;23;88701;-84
2023/10/05 05:33:36;;;;;;;3.75;1.92;;;22.60;59.60;;;;;;6034149;23;90612;-84
2023/10/05 05:36:13;;;;;;;2.85;2.00;;;22.60;59.50;;;;;;6034926;23;88169;-84
2023/10/05 05:38:47;;;;;;;3.03;2.20;;;22.60;59.60;;;;;;6037025;23;87240;-84
2023/10/05 05:41:16;;;;;;;2.30;1.83;;;22.60;59.70;;;;;;6035583;23;88826;-84
2023/10/05 05:43:42;;;;;;;2.00;1.45;;;22.60;59.60;;;;;;6035631;23;87719;-84
2023/10/05 05:46:14;;;;;;;3.25;2.42;;;22.60;59.60;;;;;;6036221;23;87198;-84
2023/10/05 05:48:44;;;;;;;4.78;2.03;;;22.60;59.60;;;;;;6036386;23;87666;-85
2023/10/05 05:51:14;;;;;;;;;;;22.50;59.60;;;;;;6009987;23;89637;-84
2023/10/05 05:53:41;;;;;;;2.13;1.60;;;22.50;59.50;;;;;;6039171;23;87934;-84
2023/10/05 05:56:07;;;;;;;2.35;1.70;;;22.60;59.50;;;;;;6036012;23;87371;-84
2023/10/05 05:58:35;;;;;;;2.30;1.63;;;22.60;59.40;;;;;;6009727;23;88821;-84
2023/10/05 06:01:00;;;;;;;2.33;1.77;;;22.60;59.60;;;;;;6034581;23;90800;-83
2023/10/05 06:03:27;;;;;;;3.15;2.00;;;22.60;59.60;;;;;;6009432;23;90938;-84
2023/10/05 06:05:54;;;;;;;2.90;1.95;;;22.50;59.60;;;;;;6036843;23;87347;-84
2023/10/05 06:08:19;;;;;;;4.22;2.13;;;22.50;59.50;;;;;;6010254;23;93431;-83
2023/10/05 06:10:46;;;;;;;2.75;1.85;;;22.60;59.60;;;;;;6009893;23;88960;-84
2023/10/05 06:13:13;;;;;;;2.65;1.95;;;22.60;59.60;;;;;;6035122;23;87736;-88
2023/10/05 06:15:39;;;;;;;2.53;1.77;;;22.50;59.40;;;;;;6035525;23;87389;-89
2023/10/05 06:18:05;;;;;;;3.72;2.30;;;22.50;58.60;;;;;;6011122;23;87498;-89
2023/10/05 06:20:31;;;;;;;2.88;1.83;;;22.50;58.80;;;;;;6039365;23;87688;-89
2023/10/05 06:22:58;;;;;;;4.15;1.77;;;22.60;58.60;;;;;;6011187;23;91799;-86
2023/10/05 06:25:25;;;;;;;7.10;2.95;;;22.50;58.60;;;;;;6037978;23;88132;-85
2023/10/05 06:27:51;;;;;;;8.32;2.88;;;22.50;58.90;;;;;;6009906;23;89293;-85
2023/10/05 06:30:17;;;;;;;9.68;3.10;;;22.50;59.00;;;;;;6008788;23;91378;-91
2023/10/05 06:32:46;;;;;;;8.85;2.35;;;22.50;58.80;;;;;;6010820;23;91740;-88
2023/10/05 06:35:11;;;;;;;7.23;2.77;;;22.50;58.60;;;;;;6008872;23;87461;-89
2023/10/05 06:37:44;;;;;;;9.73;3.75;;;22.50;58.70;;;;;;6036705;23;87935;-86
2023/10/05 06:40:12;;;;;;;10.73;2.78;;;22.50;59.10;;;;;;6039451;23;89033;-89
2023/10/05 06:42:42;;;;;;;6.97;2.45;;;22.50;58.30;;;;;;6037761;23;88213;-85
2023/10/05 06:45:13;;;;;;;4.18;2.40;;;22.50;58.50;;;;;;6037213;23;87297;-86
2023/10/05 06:47:48;;;;;;;9.45;3.08;;;22.50;58.70;;;;;;6012149;23;87412;-84
2023/10/05 06:50:14;;;;;;;8.05;2.97;;;22.50;58.70;;;;;;6000348;23;89954;-87
2023/10/05 06:52:43;;;;;;;6.93;2.95;;;22.50;59.00;;;;;;6036019;23;90453;-86
2023/10/05 06:55:14;;;;;;;5.18;2.80;;;22.60;58.90;;;;;;6037882;23;87580;-87
2023/10/05 06:57:43;;;;;;;5.63;2.95;;;22.60;59.00;;;;;;6038035;23;87584;-86
2023/10/05 07:00:16;;;;;;;9.60;3.25;;;22.60;59.10;;;;;;6011848;23;88368;-85
2023/10/05 07:02:46;;;;;;;5.70;2.80;;;22.60;59.10;;;;;;6011790;23;88347;-85
2023/10/05 07:05:12;;;;;;;5.78;3.13;;;22.60;59.00;;;;;;6036572;23;87152;-86
2023/10/05 07:07:40;;;;;;;10.60;3.03;;;22.60;59.20;;;;;;6037485;23;87126;-85
2023/10/05 07:10:08;;;;;;;8.20;2.83;;;22.60;59.20;;;;;;6010891;23;89336;-87
2023/10/05 07:12:38;;;;;;;8.82;2.78;;;22.60;59.40;;;;;;6036719;23;87377;-85
2023/10/05 07:15:05;;;;;;;7.00;2.85;;;22.60;59.20;;;;;;6033274;23;88752;-85
2023/10/05 07:17:32;;;;;;;8.00;3.10;;;22.60;59.30;;;;;;6037207;23;87279;-86
2023/10/05 07:20:11;;;;;;;7.03;3.05;;;22.60;59.20;;;;;;6036640;23;88608;-85
2023/10/05 07:22:41;;;;;;;12.88;3.20;;;22.60;59.40;;;;;;6013040;23;88716;-85
2023/10/05 07:25:08;;;;;;;6.47;2.33;;;22.60;59.40;;;;;;6040779;23;87563;-86
2023/10/05 07:27:35;;;;;;;7.90;2.60;;;22.60;59.50;;;;;;6040821;23;87209;-85
2023/10/05 07:30:03;;;;;;;8.38;3.20;;;22.60;59.50;;;;;;6041684;23;88033;-86
2023/10/05 07:32:30;;;;;;;7.07;3.30;;;22.60;59.50;;;;;;6017007;23;88206;-86
2023/10/05 07:34:56;;;;;;;8.00;3.35;;;22.60;59.60;;;;;;6039570;23;87460;-86
2023/10/05 07:37:21;;;;;;;6.85;2.95;;;22.60;59.60;;;;;;6003737;23;88209;-87
2023/10/05 07:39:50;;;;;;;9.73;3.25;;;22.60;59.70;;;;;;6009306;23;90447;-86
2023/10/05 07:42:17;;;;;;;5.72;2.88;;;22.60;59.40;;;;;;6008226;23;88611;-84
2023/10/05 07:44:43;;;;;;;6.80;2.70;;;22.60;59.70;;;;;;6007003;23;87322;-85
2023/10/05 07:47:12;;;;;;;11.63;3.80;;;22.60;59.50;;;;;;5995197;23;89910;-86
2023/10/05 07:49:41;;;;;;;12.23;4.20;;;22.60;59.50;;;;;;6005513;23;89688;-88
2023/10/05 07:52:10;;;;;;;12.35;4.28;;;22.60;59.40;;;;;;6003354;23;89333;-85
2023/10/05 07:54:41;;;;;;;10.00;3.67;;;22.60;59.40;;;;;;6007408;23;87344;-85
2023/10/05 07:57:09;;;;;;;11.70;4.00;;;22.70;59.50;;;;;;6005386;23;87653;-86
2023/10/05 07:59:36;;;;;;;18.67;4.82;;;22.60;59.50;;;;;;6008374;23;88546;-84
2023/10/05 08:02:01;;;;;;;16.27;4.88;;;22.70;59.50;;;;;;6005379;23;91501;-85
2023/10/05 08:04:28;;;;;;;16.35;4.82;;;22.70;59.70;;;;;;6006358;23;87791;-86
2023/10/05 08:06:54;;;;;;;15.60;4.90;;;22.70;59.60;;;;;;6006133;23;86947;-85
2023/10/05 08:09:20;;;;;;;17.90;5.18;;;22.70;59.60;;;;;;6006801;23;88602;-84
2023/10/05 08:11:50;;;;;;;26.10;5.72;;;22.70;59.60;;;;;;6008149;23;88493;-85
2023/10/05 08:14:20;;;;;;;17.65;5.68;;;22.70;59.60;;;;;;6007934;23;87587;-86
2023/10/05 08:16:47;;;;;;;19.98;6.15;;;22.70;59.40;;;;;;6007029;23;87542;-84
2023/10/05 08:19:15;;;;;;;20.95;6.25;;;22.70;59.40;;;;;;6007483;23;86924;-86
2023/10/05 08:21:45;;;;;;;19.58;5.68;;;22.70;59.40;;;;;;6006736;23;89457;-87
2023/10/05 08:24:11;;;;;;;19.23;5.20;;;22.70;59.50;;;;;;6000280;23;86769;-86
2023/10/05 08:26:39;;;;;;;16.27;5.68;;;22.70;59.60;;;;;;6009624;23;87435;-86
2023/10/05 08:29:06;;;;;;;20.00;5.35;;;22.70;59.50;;;;;;6005909;23;90457;-87
2023/10/05 08:31:33;;;;;;;21.08;5.25;;;22.70;59.60;;;;;;6007337;23;88651;-85
2023/10/05 08:34:00;;;;;;;29.38;6.78;;;22.70;59.70;;;;;;6007697;23;87051;-85
2023/10/05 08:36:27;;;;;;;16.80;5.18;;;22.70;59.80;;;;;;6007191;23;87083;-86
2023/10/05 08:38:56;;;;;;;17.40;5.00;;;22.70;59.80;;;;;;6009060;23;90449;-85
2023/10/05 08:41:31;;;;;;;14.63;4.85;;;22.70;59.80;;;;;;6036923;23;92437;-86
2023/10/05 08:44:00;;;;;;;17.90;5.35;;;22.70;60.00;;;;;;6012879;23;86911;-85
2023/10/05 08:46:27;;;;;;;;;;;22.70;60.00;;;;;;6008870;23;87779;-85
2023/10/05 08:48:55;;;;;;;18.40;5.20;;;22.70;59.90;;;;;;6003936;23;90311;-84
2023/10/05 08:51:30;;;;;;;17.13;5.15;;;22.70;59.80;;;;;;6005969;23;88420;-84
2023/10/05 08:53:57;;;;;;;16.60;5.68;;;22.70;59.90;;;;;;6035084;23;88230;-85
2023/10/05 08:56:24;;;;;;;20.88;6.03;;;22.80;59.90;;;;;;6036684;23;87367;-86
2023/10/05 08:58:52;;;;;;;19.13;5.65;;;22.70;60.10;;;;;;6034670;23;88201;-87
2023/10/05 09:01:26;;;;;;;16.90;6.57;;;22.70;60.10;;;;;;6034661;23;88780;-85
2023/10/05 09:04:01;;;;;;;14.38;5.20;;;22.80;60.10;;;;;;6036488;23;87715;-86
2023/10/05 09:06:28;;;;;;;16.92;5.32;;;22.70;60.10;;;;;;6033573;23;87296;-85
2023/10/05 09:09:07;;;;;;;15.30;5.30;;;22.70;60.10;;;;;;6037326;23;89062;-85
2023/10/05 09:11:33;;;;;;;14.52;5.85;;;22.70;60.00;;;;;;6026936;23;93015;-86
2023/10/05 09:14:12;;;;;;;15.40;5.55;;;22.80;60.10;;;;;;6014624;23;87304;-86
2023/10/05 09:16:47;;;;;;;16.65;5.10;;;22.70;60.30;;;;;;6036320;23;87177;-88
2023/10/05 09:19:23;;;;;;;32.30;5.90;;;22.70;60.00;;;;;;6034916;23;89748;-86
2023/10/05 09:21:50;;;;;;;17.73;5.18;;;22.70;59.30;;;;;;6005239;23;90927;-86
2023/10/05 09:24:25;;;;;;;17.10;5.15;;;22.70;59.70;;;;;;6007746;23;87628;-86
2023/10/05 09:26:58;;;;;;;14.00;5.45;;;22.70;59.10;;;;;;6014478;23;87593;-91
2023/10/05 09:29:32;;;;;;;12.52;5.20;;;22.70;59.50;;;;;;6049091;23;92663;-89
2023/10/05 09:31:59;;;;;;;14.88;4.55;;;22.70;59.60;;;;;;6045353;23;87279;-87
2023/10/05 09:34:39;;;;;;;11.60;4.75;;;22.80;59.70;;;;;;6039800;23;87069;-88
2023/10/05 09:37:13;;;;;;;20.88;7.03;;;22.70;59.70;;;;;;6029449;23;87725;-86
2023/10/05 09:39:44;;;;;;;19.08;6.07;;;22.70;59.80;;;;;;5981360;23;94527;-87
2023/10/05 09:42:17;;;;;;;16.98;6.03;;;22.80;59.40;;;;;;6001973;23;90836;-85
2023/10/05 09:44:57;;;;;;;20.25;6.25;;;22.80;59.60;;;;;;6037979;23;87781;-88
2023/10/05 09:47:33;;;;;;;15.60;5.63;;;22.70;59.50;;;;;;6030941;23;92869;-87
2023/10/05 09:50:01;;;;;;;23.00;6.68;;;22.70;60.00;;;;;;5987524;23;88797;-87
2023/10/05 09:52:43;;;;;;;19.20;6.72;;;22.70;60.20;;;;;;6008508;23;91914;-85
2023/10/05 09:55:12;;;;;;;19.40;6.45;;;22.70;60.00;;;;;;6015839;23;87088;-84
2023/10/05 09:57:46;;;;;;;15.40;6.30;;;22.80;60.30;;;;;;6035909;23;87534;-85
2023/10/05 10:01:10;;;;;;;15.38;5.80;;;22.70;60.30;;;;;;6009998;23;88621;-84
2023/10/05 10:03:01;;;;;;;12.90;5.60;;;22.70;60.30;;;;;;6031020;23;86484;-85
2023/10/05 10:05:37;;;;;;;14.63;5.00;;;22.70;60.30;;;;;;6011383;23;87326;-85
2023/10/05 10:08:14;;;;;;;14.77;5.75;;;22.80;60.40;;;;;;6035391;23;87290;-84
2023/10/05 10:10:51;;;;;;;16.83;5.65;;;22.70;60.70;;;;;;6031957;23;88672;-87
2023/10/05 10:13:21;;;;;;;12.70;5.18;;;22.70;60.40;;;;;;6009834;23;90213;-86
2023/10/05 10:15:53;;;;;;;12.25;4.78;;;22.70;60.50;;;;;;6011682;23;87267;-84
2023/10/05 10:18:30;;;;;;;15.20;5.30;;;22.70;60.70;;;;;;6008621;23;87530;-87
2023/10/05 10:20:57;;;;;;;13.65;4.65;;;22.70;60.60;;;;;;6010158;23;89935;-89
2023/10/05 10:23:24;;;;;;;12.18;5.15;;;22.80;60.80;;;;;;6037208;23;88814;-88
2023/10/05 10:25:52;;;;;;;13.40;5.65;;;22.70;60.60;;;;;;6011706;23;87517;-86
2023/10/05 10:28:20;;;;;;;11.02;4.55;;;22.70;60.50;;;;;;6014464;23;86761;-88
2023/10/05 10:31:13;;;;;;;14.95;4.40;;;22.70;60.60;;;;;;6041631;23;88155;-92
2023/10/05 10:33:40;;;;;;;17.33;6.05;;;22.70;60.20;;;;;;6041019;23;88238;-87
2023/10/05 10:36:18;;;;;;;14.27;5.00;;;22.80;60.20;;;;;;6009017;23;87883;-86
2023/10/05 10:38:45;;;;;;;14.90;4.82;;;22.80;60.50;;;;;;6010481;23;87333;-85
2023/10/05 10:41:11;;;;;;;12.20;5.03;;;22.70;60.60;;;;;;6008981;23;90009;-86
2023/10/05 10:43:37;;;;;;;10.10;4.43;;;22.70;60.50;;;;;;6007607;23;89922;-85
2023/10/05 10:46:13;;;;;;;9.18;4.45;;;22.80;60.50;;;;;;6031915;23;87287;-86
2023/10/05 10:48:59;;;;;;;13.65;4.80;;;22.80;60.70;;;;;;6034904;23;87360;-85
2023/10/05 10:51:32;;;;;;;14.05;5.30;;;22.80;60.40;;;;;;6034521;23;87844;-85
2023/10/05 10:54:08;;;;;;;10.98;4.38;;;22.80;60.80;;;;;;6010187;23;89957;-85
2023/10/05 10:56:42;;;;;;;9.40;4.10;;;22.70;60.50;;;;;;6011069;23;87179;-85
2023/10/05 10:59:19;;;;;;;13.90;5.05;;;22.70;60.40;;;;;;6035564;23;87399;-84
2023/10/05 11:01:53;;;;;;;12.52;4.65;;;22.80;60.60;;;;;;6008049;23;91727;-86
2023/10/05 11:04:29;;;;;;;12.43;4.78;;;22.80;60.40;;;;;;6009307;23;91814;-85
2023/10/05 11:07:05;;;;;;;12.68;4.13;;;22.80;60.50;;;;;;6009737;23;93395;-85
2023/10/05 11:09:52;;;;;;;14.00;4.93;;;22.70;60.20;;;;;;6036363;23;87324;-85
2023/10/05 11:12:22;;;;;;;12.15;4.63;;;22.80;60.20;;;;;;6035164;23;89973;-85
2023/10/05 11:14:51;;;;;;;8.68;4.07;;;22.80;60.50;;;;;;6037355;23;87294;-85
2023/10/05 11:17:23;;;;;;;10.60;4.63;;;22.80;60.40;;;;;;6010641;23;87258;-85
2023/10/05 11:19:49;;;;;;;8.48;4.38;;;22.80;60.20;;;;;;6010309;23;89095;-85
2023/10/05 11:22:23;;;;;;;12.65;4.45;;;22.80;60.40;;;;;;6034846;23;88694;-85
2023/10/05 11:25:16;;;;;;;9.55;3.80;;;22.80;60.40;;;;;;6006599;23;88600;-85
2023/10/05 11:27:54;;;;;;;13.05;3.63;;;22.80;60.10;;;;;;6007493;23;88106;-90
2023/10/05 11:30:21;;;;;;;10.38;3.65;;;22.80;60.10;;;;;;6009091;23;88480;-89
2023/10/05 11:32:56;;;;;;;10.52;3.58;;;22.80;59.50;;;;;;6010382;23;88952;-87
2023/10/05 11:35:29;;;;;;;11.60;3.88;;;22.80;59.00;;;;;;6035503;23;91584;-88
2023/10/05 11:37:59;;;;;;;10.90;3.55;;;22.80;58.90;;;;;;6059575;23;87384;-87
2023/10/05 11:40:35;;;;;;;10.50;3.88;;;22.80;58.70;;;;;;6036454;23;88670;-88
2023/10/05 11:43:04;;;;;;;9.93;3.70;;;22.80;58.80;;;;;;6036878;23;88218;-88
2023/10/05 11:45:30;;;;;;;;;;;22.80;59.40;;;;;;6036405;23;89561;-87
2023/10/05 11:47:57;;;;;;;9.85;3.92;;;22.80;58.70;;;;;;6036977;23;87512;-84
2023/10/05 11:50:32;;;;;;;12.07;3.92;;;22.80;59.40;;;;;;6036228;23;89203;-87
2023/10/05 11:53:10;;;;;;;9.75;3.13;;;22.80;59.20;;;;;;6058950;23;92419;-88
2023/10/05 11:55:36;;;;;;;10.18;3.42;;;22.80;59.20;;;;;;6040567;23;88524;-83
2023/10/05 11:58:02;;;;;;;10.43;3.10;;;22.60;72.00;;;;;;6062480;23;87158;-86
2023/10/05 12:00:31;;;;;;;10.63;3.38;;;22.50;63.30;;;;;;6040370;23;88634;-84
2023/10/05 12:02:57;;;;;;;11.85;4.22;;;22.40;62.10;;;;;;6040686;23;89110;-83
2023/10/05 12:05:25;;;;;;;56.03;16.33;;;22.40;61.90;;;;;;6066822;23;89405;-89
2023/10/05 12:07:51;;;;;;;59.05;20.13;;;22.40;61.80;;;;;;6041198;23;87275;-88
2023/10/05 12:10:19;;;;;;;55.00;15.27;;;22.40;61.30;;;;;;6042460;23;90565;-85
2023/10/05 12:12:50;;;;;;;31.23;9.18;;;22.40;60.60;;;;;;6043690;23;89661;-86
2023/10/05 12:15:17;;;;;;;75.85;23.00;;;22.40;59.80;;;;;;6065813;23;89737;-88
2023/10/05 12:17:46;;;;;;;100.68;28.42;;;22.40;59.30;;;;;;6065021;23;88187;-88
2023/10/05 12:20:13;;;;;;;93.43;28.90;;;22.50;59.80;;;;;;6040751;23;88438;-88
2023/10/05 12:22:39;;;;;;;88.78;23.55;;;22.50;59.40;;;;;;6040509;23;89576;-87
2023/10/05 12:25:07;;;;;;;71.68;21.48;;;22.50;59.30;;;;;;6040239;23;89758;-86
2023/10/05 12:27:35;;;;;;;56.33;17.42;;;22.50;59.00;;;;;;6043939;23;86897;-91
2023/10/05 12:30:11;;;;;;;63.03;19.85;;;22.50;59.20;;;;;;6040313;23;89277;-91
2023/10/05 12:32:40;;;;;;;51.33;18.05;;;22.60;59.20;;;;;;6040344;23;89838;-90
2023/10/05 12:35:07;;;;;;;;;;;22.60;59.30;;;;;;6040327;23;92804;-88
2023/10/05 12:37:33;;;;;;;41.50;12.32;;;22.60;58.80;;;;;;6040292;23;86961;-88
2023/10/05 12:40:11;;;;;;;34.83;11.68;;;22.60;59.30;;;;;;6037863;23;88495;-89
2023/10/05 12:42:37;;;;;;;30.67;9.53;;;22.60;59.00;;;;;;6037856;23;90512;-87
2023/10/05 12:45:04;;;;;;;31.85;10.63;;;22.70;58.40;;;;;;6039167;23;90701;-88
2023/10/05 12:47:30;;;;;;;28.75;10.38;;;22.60;58.50;;;;;;6041675;23;87317;-86
2023/10/05 12:49:56;;;;;;;28.50;10.25;;;22.70;62.50;;;;;;6040185;23;87045;-85
2023/10/05 12:52:23;;;;;;;29.15;9.82;;;22.70;66.20;;;;;;6051090;23;90873;-84
2023/10/05 12:54:49;;;;;;;31.52;9.52;;;22.70;66.50;;;;;;6042916;23;87814;-84
2023/10/05 12:57:15;;;;;;;34.78;8.77;;;22.70;67.70;;;;;;6041854;23;87654;-84
2023/10/05 12:59:42;;;;;;;21.33;7.80;;;22.70;68.00;;;;;;6044929;23;88740;-89
2023/10/05 13:02:15;;;;;;;27.48;8.45;;;22.70;70.00;;;;;;6045934;23;88534;-86
2023/10/05 13:04:42;;;;;;;21.23;7.63;;;22.70;68.80;;;;;;6043126;23;87819;-87
2023/10/05 13:07:07;;;;;;;16.75;6.65;;;22.70;70.70;;;;;;6044069;23;88261;-86
2023/10/05 13:09:34;;;;;;;24.38;7.10;;;22.70;67.60;;;;;;6042185;23;89201;-85